sensor_id;sensor_type;location;lat;lon;timestamp;P1;durP1;ratioP1;P2;durP2;ratioP2
19402;SDS011;9837;48.888;8.998;2023-01-06T04:01:26;1.13;;;0.90;;
19402;SDS011;9837;48.888;8.998;2023-01-06T04:03:53;1.63;;;1.00;;
19402;SDS011;9837;48.888;8.998;2023-01-06T04:06:19;2.73;;;1.10;;
19402;SDS011;9837;48.888;8.998;2023-01-06T04:08:46;1.00;;;0.83;;
19402;SDS011;9837;48.888;8.998;2023-01-06T04:11:12;1.03;;;0.93;;
19402;SDS011;9837;48.888;8.998;2023-01-06T04:13:56;2.43;;;2.23;;
19402;SDS011;9837;48.888;8.998;2023-01-06T04:16:22;1.20;;;1.10;;
19402;SDS011;9837;48.888;8.998;2023-01-06T04:18:48;0.90;;;0.90;;
19402;SDS011;9837;48.888;8.998;2023-01-06T04:21:14;0.90;;;0.90;;
19402;SDS011;9837;48.888;8.998;2023-01-06T04:23:40;1.37;;;1.00;;
19402;SDS011;9837;48.888;8.998;2023-01-06T04:26:06;1.60;;;1.10;;
19402;SDS011;9837;48.888;8.998;2023-01-06T04:28:32;1.27;;;1.17;;
19402;SDS011;9837;48.888;8.998;2023-01-06T04:30:59;1.50;;;1.30;;
19402;SDS011;9837;48.888;8.998;2023-01-06T04:33:25;1.13;;;1.03;;
19402;SDS011;9837;48.888;8.998;2023-01-06T04:35:51;1.33;;;1.23;;
19402;SDS011;9837;48.888;8.998;2023-01-06T04:38:17;1.73;;;1.63;;
19402;SDS011;9837;48.888;8.998;2023-01-06T04:40:43;1.60;;;1.50;;
19402;SDS011;9837;48.888;8.998;2023-01-06T04:43:09;1.40;;;1.30;;
19402;SDS011;9837;48.888;8.998;2023-01-06T04:45:40;2.00;;;1.70;;
19402;SDS011;9837;48.888;8.998;2023-01-06T04:48:06;2.17;;;1.80;;
19402;SDS011;9837;48.888;8.998;2023-01-06T04:50:32;2.63;;;1.80;;
19402;SDS011;9837;48.888;8.998;2023-01-06T04:52:58;2.37;;;2.17;;
19402;SDS011;9837;48.888;8.998;2023-01-06T04:55:24;2.90;;;1.67;;
19402;SDS011;9837;48.888;8.998;2023-01-06T04:57:49;2.13;;;1.93;;
19402;SDS011;9837;48.888;8.998;2023-01-06T05:00:15;2.27;;;1.97;;
19402;SDS011;9837;48.888;8.998;2023-01-06T05:02:41;4.07;;;2.70;;
19402;SDS011;9837;48.888;8.998;2023-01-06T05:05:07;2.70;;;2.50;;
19402;SDS011;9837;48.888;8.998;2023-01-06T05:07:33;2.80;;;2.30;;
19402;SDS011;9837;48.888;8.998;2023-01-06T05:09:58;3.47;;;2.90;;
19402;SDS011;9837;48.888;8.998;2023-01-06T05:12:24;3.37;;;2.70;;
19402;SDS011;9837;48.888;8.998;2023-01-06T05:14:49;4.57;;;2.67;;
19402;SDS011;9837;48.888;8.998;2023-01-06T05:17:15;3.90;;;2.93;;
19402;SDS011;9837;48.888;8.998;2023-01-06T05:19:40;3.23;;;2.73;;
19402;SDS011;9837;48.888;8.998;2023-01-06T05:22:08;3.53;;;2.73;;
19402;SDS011;9837;48.888;8.998;2023-01-06T05:24:34;3.03;;;2.63;;
19402;SDS011;9837;48.888;8.998;2023-01-06T05:27:00;3.30;;;2.90;;
19402;SDS011;9837;48.888;8.998;2023-01-06T05:29:26;2.90;;;2.43;;
19402;SDS011;9837;48.888;8.998;2023-01-06T05:31:51;5.13;;;2.93;;
19402;SDS011;9837;48.888;8.998;2023-01-06T05:34:17;3.67;;;2.97;;
19402;SDS011;9837;48.888;8.998;2023-01-06T05:36:42;4.97;;;2.40;;
19402;SDS011;9837;48.888;8.998;2023-01-06T05:39:08;3.13;;;2.30;;
19402;SDS011;9837;48.888;8.998;2023-01-06T05:41:34;3.90;;;2.23;;
19402;SDS011;9837;48.888;8.998;2023-01-06T05:43:59;2.27;;;2.07;;
19402;SDS011;9837;48.888;8.998;2023-01-06T05:46:25;2.20;;;2.00;;
19402;SDS011;9837;48.888;8.998;2023-01-06T05:48:50;2.77;;;2.57;;
19402;SDS011;9837;48.888;8.998;2023-01-06T05:51:16;2.17;;;2.00;;
19402;SDS011;9837;48.888;8.998;2023-01-06T05:53:43;2.57;;;1.80;;
19402;SDS011;9837;48.888;8.998;2023-01-06T05:56:11;1.90;;;1.80;;
19402;SDS011;9837;48.888;8.998;2023-01-06T05:58:42;2.33;;;2.10;;
19402;SDS011;9837;48.888;8.998;2023-01-06T06:01:19;6.30;;;3.07;;
19402;SDS011;9837;48.888;8.998;2023-01-06T06:03:49;2.20;;;2.00;;
19402;SDS011;9837;48.888;8.998;2023-01-06T06:06:16;4.60;;;3.33;;
19402;SDS011;9837;48.888;8.998;2023-01-06T06:08:42;5.10;;;2.53;;
19402;SDS011;9837;48.888;8.998;2023-01-06T06:11:09;2.20;;;2.00;;
19402;SDS011;9837;48.888;8.998;2023-01-06T06:13:36;2.40;;;2.20;;
19402;SDS011;9837;48.888;8.998;2023-01-06T06:16:06;2.40;;;2.20;;
19402;SDS011;9837;48.888;8.998;2023-01-06T06:18:34;2.73;;;2.50;;
19402;SDS011;9837;48.888;8.998;2023-01-06T06:21:04;3.07;;;2.53;;
19402;SDS011;9837;48.888;8.998;2023-01-06T06:23:30;5.97;;;2.90;;
19402;SDS011;9837;48.888;8.998;2023-01-06T06:25:56;3.40;;;3.10;;
19402;SDS011;9837;48.888;8.998;2023-01-06T06:28:22;3.70;;;3.10;;
19402;SDS011;9837;48.888;8.998;2023-01-06T06:30:47;3.10;;;2.80;;
19402;SDS011;9837;48.888;8.998;2023-01-06T06:33:13;4.47;;;3.17;;
19402;SDS011;9837;48.888;8.998;2023-01-06T06:35:38;3.93;;;2.70;;
19402;SDS011;9837;48.888;8.998;2023-01-06T06:38:04;3.47;;;2.43;;
19402;SDS011;9837;48.888;8.998;2023-01-06T06:40:29;3.23;;;2.77;;
19402;SDS011;9837;48.888;8.998;2023-01-06T06:42:55;3.13;;;2.47;;
19402;SDS011;9837;48.888;8.998;2023-01-06T06:45:21;2.97;;;2.67;;
19402;SDS011;9837;48.888;8.998;2023-01-06T06:47:47;2.60;;;2.40;;
19402;SDS011;9837;48.888;8.998;2023-01-06T06:50:13;6.70;;;4.93;;
19402;SDS011;9837;48.888;8.998;2023-01-06T06:52:38;2.53;;;2.33;;
19402;SDS011;9837;48.888;8.998;2023-01-06T06:55:04;2.83;;;2.53;;
19402;SDS011;9837;48.888;8.998;2023-01-06T06:57:30;3.37;;;2.57;;
19402;SDS011;9837;48.888;8.998;2023-01-06T06:59:55;7.60;;;2.93;;
19402;SDS011;9837;48.888;8.998;2023-01-06T07:02:21;2.80;;;2.20;;
19402;SDS011;9837;48.888;8.998;2023-01-06T07:04:47;2.30;;;2.00;;
19402;SDS011;9837;48.888;8.998;2023-01-06T07:07:12;4.37;;;1.67;;
19402;SDS011;9837;48.888;8.998;2023-01-06T07:09:38;3.30;;;1.90;;
19402;SDS011;9837;48.888;8.998;2023-01-06T07:12:03;3.43;;;1.80;;
19402;SDS011;9837;48.888;8.998;2023-01-06T07:14:29;2.63;;;1.70;;
19402;SDS011;9837;48.888;8.998;2023-01-06T07:16:58;2.43;;;1.80;;
19402;SDS011;9837;48.888;8.998;2023-01-06T07:19:24;1.80;;;1.50;;
19402;SDS011;9837;48.888;8.998;2023-01-06T07:21:50;8.53;;;1.93;;
19402;SDS011;9837;48.888;8.998;2023-01-06T07:24:15;1.50;;;1.40;;
19402;SDS011;9837;48.888;8.998;2023-01-06T07:26:41;1.43;;;1.30;;
19402;SDS011;9837;48.888;8.998;2023-01-06T07:29:06;2.53;;;1.60;;
19402;SDS011;9837;48.888;8.998;2023-01-06T07:31:32;1.73;;;1.40;;
19402;SDS011;9837;48.888;8.998;2023-01-06T07:33:57;2.03;;;1.20;;
19402;SDS011;9837;48.888;8.998;2023-01-06T07:36:23;2.17;;;1.57;;
19402;SDS011;9837;48.888;8.998;2023-01-06T07:38:48;2.93;;;1.43;;
19402;SDS011;9837;48.888;8.998;2023-01-06T07:41:14;1.87;;;1.50;;
19402;SDS011;9837;48.888;8.998;2023-01-06T07:43:39;1.53;;;1.43;;
19402;SDS011;9837;48.888;8.998;2023-01-06T07:46:05;4.70;;;1.60;;
19402;SDS011;9837;48.888;8.998;2023-01-06T07:48:30;1.30;;;1.20;;
19402;SDS011;9837;48.888;8.998;2023-01-06T07:50:56;1.10;;;1.00;;
19402;SDS011;9837;48.888;8.998;2023-01-06T07:53:22;4.10;;;1.90;;
19402;SDS011;9837;48.888;8.998;2023-01-06T07:55:51;2.80;;;1.53;;
19402;SDS011;9837;48.888;8.998;2023-01-06T07:58:17;3.10;;;1.20;;
19402;SDS011;9837;48.888;8.998;2023-01-06T08:00:43;1.43;;;1.00;;
19402;SDS011;9837;48.888;8.998;2023-01-06T08:03:09;2.20;;;1.27;;
19402;SDS011;9837;48.888;8.998;2023-01-06T08:05:38;1.20;;;0.93;;
19402;SDS011;9837;48.888;8.998;2023-01-06T08:08:10;1.43;;;1.00;;
19402;SDS011;9837;48.888;8.998;2023-01-06T08:10:40;1.17;;;1.00;;
19402;SDS011;9837;48.888;8.998;2023-01-06T08:13:07;4.53;;;1.27;;
19402;SDS011;9837;48.888;8.998;2023-01-06T08:15:34;1.53;;;0.90;;
19402;SDS011;9837;48.888;8.998;2023-01-06T08:18:00;1.03;;;0.87;;
19402;SDS011;9837;48.888;8.998;2023-01-06T08:20:26;1.00;;;0.70;;
19402;SDS011;9837;48.888;8.998;2023-01-06T08:22:52;1.10;;;0.90;;
19402;SDS011;9837;48.888;8.998;2023-01-06T08:25:17;1.13;;;0.80;;
19402;SDS011;9837;48.888;8.998;2023-01-06T08:27:43;0.73;;;0.70;;
19402;SDS011;9837;48.888;8.998;2023-01-06T08:30:08;0.77;;;0.77;;
19402;SDS011;9837;48.888;8.998;2023-01-06T08:32:34;1.10;;;0.90;;
19402;SDS011;9837;48.888;8.998;2023-01-06T08:35:00;0.80;;;0.80;;
19402;SDS011;9837;48.888;8.998;2023-01-06T08:37:25;2.20;;;0.90;;
19402;SDS011;9837;48.888;8.998;2023-01-06T08:39:51;0.60;;;0.60;;
19402;SDS011;9837;48.888;8.998;2023-01-06T08:42:16;1.73;;;0.90;;
19402;SDS011;9837;48.888;8.998;2023-01-06T08:44:43;0.73;;;0.50;;
19402;SDS011;9837;48.888;8.998;2023-01-06T08:47:09;0.80;;;0.80;;
19402;SDS011;9837;48.888;8.998;2023-01-06T08:49:35;0.80;;;0.60;;
19402;SDS011;9837;48.888;8.998;2023-01-06T08:52:00;1.27;;;0.73;;
19402;SDS011;9837;48.888;8.998;2023-01-06T08:54:26;0.70;;;0.70;;
19402;SDS011;9837;48.888;8.998;2023-01-06T08:56:53;0.70;;;0.63;;
19402;SDS011;9837;48.888;8.998;2023-01-06T08:59:18;0.70;;;0.60;;
19402;SDS011;9837;48.888;8.998;2023-01-06T09:01:44;0.50;;;0.50;;
19402;SDS011;9837;48.888;8.998;2023-01-06T09:04:10;0.70;;;0.63;;
19402;SDS011;9837;48.888;8.998;2023-01-06T09:06:37;1.50;;;0.70;;
19402;SDS011;9837;48.888;8.998;2023-01-06T09:09:06;0.80;;;0.80;;
19402;SDS011;9837;48.888;8.998;2023-01-06T09:11:32;0.70;;;0.70;;
19402;SDS011;9837;48.888;8.998;2023-01-06T09:13:57;1.37;;;0.67;;
19402;SDS011;9837;48.888;8.998;2023-01-06T09:16:23;0.93;;;0.63;;
19402;SDS011;9837;48.888;8.998;2023-01-06T09:18:48;1.33;;;0.37;;
19402;SDS011;9837;48.888;8.998;2023-01-06T09:21:18;0.60;;;0.60;;
19402;SDS011;9837;48.888;8.998;2023-01-06T09:23:46;1.77;;;0.77;;
19402;SDS011;9837;48.888;8.998;2023-01-06T09:26:12;0.60;;;0.60;;
19402;SDS011;9837;48.888;8.998;2023-01-06T09:28:38;0.63;;;0.30;;
19402;SDS011;9837;48.888;8.998;2023-01-06T09:31:05;0.73;;;0.53;;
19402;SDS011;9837;48.888;8.998;2023-01-06T09:33:31;2.23;;;0.80;;
19402;SDS011;9837;48.888;8.998;2023-01-06T09:35:56;0.40;;;0.40;;
19402;SDS011;9837;48.888;8.998;2023-01-06T09:38:22;1.03;;;0.70;;
19402;SDS011;9837;48.888;8.998;2023-01-06T09:40:52;2.27;;;1.30;;
19402;SDS011;9837;48.888;8.998;2023-01-06T09:43:38;0.40;;;0.40;;
19402;SDS011;9837;48.888;8.998;2023-01-06T09:46:13;0.60;;;0.57;;
19402;SDS011;9837;48.888;8.998;2023-01-06T09:48:44;1.17;;;0.60;;
19402;SDS011;9837;48.888;8.998;2023-01-06T09:51:34;0.53;;;0.53;;
19402;SDS011;9837;48.888;8.998;2023-01-06T09:54:04;0.67;;;0.67;;
19402;SDS011;9837;48.888;8.998;2023-01-06T09:56:33;2.97;;;0.70;;
19402;SDS011;9837;48.888;8.998;2023-01-06T10:01:26;1.23;;;0.87;;
19402;SDS011;9837;48.888;8.998;2023-01-06T10:03:56;1.87;;;0.70;;
19402;SDS011;9837;48.888;8.998;2023-01-06T10:14:11;0.57;;;0.57;;
19402;SDS011;9837;48.888;8.998;2023-01-06T10:17:10;0.50;;;0.50;;
19402;SDS011;9837;48.888;8.998;2023-01-06T10:20:18;0.60;;;0.60;;
19402;SDS011;9837;48.888;8.998;2023-01-06T10:25:49;1.43;;;1.00;;
19402;SDS011;9837;48.888;8.998;2023-01-06T10:29:00;0.50;;;0.50;;
19402;SDS011;9837;48.888;8.998;2023-01-06T10:31:13;1.03;;;0.50;;
19402;SDS011;9837;48.888;8.998;2023-01-06T10:33:46;0.80;;;0.80;;
19402;SDS011;9837;48.888;8.998;2023-01-06T10:36:16;0.83;;;0.83;;
19402;SDS011;9837;48.888;8.998;2023-01-06T10:38:46;0.73;;;0.70;;
19402;SDS011;9837;48.888;8.998;2023-01-06T10:41:22;0.80;;;0.80;;
19402;SDS011;9837;48.888;8.998;2023-01-06T10:44:10;0.83;;;0.83;;
19402;SDS011;9837;48.888;8.998;2023-01-06T10:46:37;0.73;;;0.73;;
19402;SDS011;9837;48.888;8.998;2023-01-06T10:49:06;0.97;;;0.90;;
19402;SDS011;9837;48.888;8.998;2023-01-06T10:51:38;0.87;;;0.87;;
19402;SDS011;9837;48.888;8.998;2023-01-06T10:54:10;0.80;;;0.80;;
19402;SDS011;9837;48.888;8.998;2023-01-06T10:56:40;1.33;;;1.00;;
19402;SDS011;9837;48.888;8.998;2023-01-06T10:59:11;0.70;;;0.70;;
19402;SDS011;9837;48.888;8.998;2023-01-06T11:01:48;1.33;;;1.10;;
19402;SDS011;9837;48.888;8.998;2023-01-06T11:04:18;0.67;;;0.67;;
19402;SDS011;9837;48.888;8.998;2023-01-06T11:14:59;0.80;;;0.80;;
19402;SDS011;9837;48.888;8.998;2023-01-06T11:17:27;1.13;;;1.03;;
19402;SDS011;9837;48.888;8.998;2023-01-06T11:20:05;0.90;;;0.90;;
19402;SDS011;9837;48.888;8.998;2023-01-06T11:22:32;5.93;;;3.97;;
19402;SDS011;9837;48.888;8.998;2023-01-06T11:25:00;0.97;;;0.90;;
19402;SDS011;9837;48.888;8.998;2023-01-06T11:27:27;0.83;;;0.40;;
19402;SDS011;9837;48.888;8.998;2023-01-06T11:29:53;0.70;;;0.60;;
19402;SDS011;9837;48.888;8.998;2023-01-06T11:32:22;1.47;;;0.70;;
19402;SDS011;9837;48.888;8.998;2023-01-06T11:37:36;0.63;;;0.63;;
19402;SDS011;9837;48.888;8.998;2023-01-06T11:40:15;0.90;;;0.73;;
19402;SDS011;9837;48.888;8.998;2023-01-06T11:42:41;2.07;;;0.60;;
19402;SDS011;9837;48.888;8.998;2023-01-06T11:45:26;0.60;;;0.60;;
19402;SDS011;9837;48.888;8.998;2023-01-06T11:47:52;0.70;;;0.70;;
19402;SDS011;9837;48.888;8.998;2023-01-06T11:50:18;0.73;;;0.73;;
19402;SDS011;9837;48.888;8.998;2023-01-06T11:52:44;0.97;;;0.97;;
19402;SDS011;9837;48.888;8.998;2023-01-06T11:55:26;1.00;;;0.90;;
19402;SDS011;9837;48.888;8.998;2023-01-06T11:57:55;0.93;;;0.87;;
19402;SDS011;9837;48.888;8.998;2023-01-06T12:03:02;1.50;;;1.20;;
19402;SDS011;9837;48.888;8.998;2023-01-06T12:09:09;1.87;;;0.90;;
19402;SDS011;9837;48.888;8.998;2023-01-06T12:11:53;0.50;;;0.50;;
19402;SDS011;9837;48.888;8.998;2023-01-06T12:14:27;0.90;;;0.90;;
19402;SDS011;9837;48.888;8.998;2023-01-06T12:19:38;0.90;;;0.60;;
19402;SDS011;9837;48.888;8.998;2023-01-06T12:22:05;1.63;;;1.23;;
19402;SDS011;9837;48.888;8.998;2023-01-06T12:24:45;0.63;;;0.63;;
19402;SDS011;9837;48.888;8.998;2023-01-06T12:27:13;0.93;;;0.83;;
19402;SDS011;9837;48.888;8.998;2023-01-06T12:29:54;0.50;;;0.50;;
19402;SDS011;9837;48.888;8.998;2023-01-06T12:32:23;1.10;;;1.00;;
19402;SDS011;9837;48.888;8.998;2023-01-06T12:34:53;0.53;;;0.40;;
19402;SDS011;9837;48.888;8.998;2023-01-06T12:40:20;1.87;;;0.70;;
19402;SDS011;9837;48.888;8.998;2023-01-06T12:42:55;0.50;;;0.50;;
19402;SDS011;9837;48.888;8.998;2023-01-06T12:48:47;0.60;;;0.60;;
19402;SDS011;9837;48.888;8.998;2023-01-06T12:51:34;0.93;;;0.93;;
19402;SDS011;9837;48.888;8.998;2023-01-06T12:54:08;0.60;;;0.60;;
19402;SDS011;9837;48.888;8.998;2023-01-06T12:56:46;1.67;;;1.13;;
19402;SDS011;9837;48.888;8.998;2023-01-06T13:05:01;0.97;;;0.80;;
19402;SDS011;9837;48.888;8.998;2023-01-06T13:08:05;1.30;;;1.00;;
19402;SDS011;9837;48.888;8.998;2023-01-06T13:13:47;1.47;;;1.00;;
19402;SDS011;9837;48.888;8.998;2023-01-06T13:16:44;0.70;;;0.70;;
19402;SDS011;9837;48.888;8.998;2023-01-06T13:21:55;0.80;;;0.80;;
19402;SDS011;9837;48.888;8.998;2023-01-06T13:24:36;0.90;;;0.90;;
19402;SDS011;9837;48.888;8.998;2023-01-06T13:27:49;2.47;;;1.23;;
19402;SDS011;9837;48.888;8.998;2023-01-06T13:33:05;1.80;;;1.20;;
19402;SDS011;9837;48.888;8.998;2023-01-06T13:38:57;1.03;;;0.93;;
19402;SDS011;9837;48.888;8.998;2023-01-06T13:41:31;1.00;;;1.00;;
19402;SDS011;9837;48.888;8.998;2023-01-06T13:43:59;3.73;;;1.50;;
19402;SDS011;9837;48.888;8.998;2023-01-06T13:46:27;2.63;;;1.30;;
19402;SDS011;9837;48.888;8.998;2023-01-06T13:48:59;2.20;;;1.80;;
19402;SDS011;9837;48.888;8.998;2023-01-06T13:51:28;3.37;;;1.47;;
19402;SDS011;9837;48.888;8.998;2023-01-06T13:53:57;2.93;;;1.63;;
19402;SDS011;9837;48.888;8.998;2023-01-06T13:56:25;2.00;;;1.63;;
19402;SDS011;9837;48.888;8.998;2023-01-06T13:59:15;4.90;;;1.60;;
19402;SDS011;9837;48.888;8.998;2023-01-06T14:01:45;2.03;;;1.63;;
19402;SDS011;9837;48.888;8.998;2023-01-06T14:07:06;1.93;;;1.53;;
19402;SDS011;9837;48.888;8.998;2023-01-06T14:09:35;1.73;;;1.30;;
19402;SDS011;9837;48.888;8.998;2023-01-06T14:12:07;1.40;;;1.30;;
19402;SDS011;9837;48.888;8.998;2023-01-06T14:14:35;1.50;;;1.23;;
19402;SDS011;9837;48.888;8.998;2023-01-06T14:17:02;2.37;;;1.43;;
19402;SDS011;9837;48.888;8.998;2023-01-06T14:19:33;1.37;;;1.27;;
19402;SDS011;9837;48.888;8.998;2023-01-06T14:22:20;1.20;;;1.10;;
19402;SDS011;9837;48.888;8.998;2023-01-06T14:24:50;1.53;;;1.40;;
19402;SDS011;9837;48.888;8.998;2023-01-06T14:35:11;1.60;;;1.50;;
19402;SDS011;9837;48.888;8.998;2023-01-06T14:37:40;1.63;;;1.00;;
19402;SDS011;9837;48.888;8.998;2023-01-06T14:40:24;1.60;;;1.50;;
19402;SDS011;9837;48.888;8.998;2023-01-06T14:42:52;1.70;;;1.60;;
19402;SDS011;9837;48.888;8.998;2023-01-06T14:45:23;1.43;;;1.33;;
19402;SDS011;9837;48.888;8.998;2023-01-06T14:47:52;1.70;;;1.30;;
19402;SDS011;9837;48.888;8.998;2023-01-06T14:50:40;1.43;;;1.33;;
19402;SDS011;9837;48.888;8.998;2023-01-06T14:53:10;1.67;;;1.40;;
19402;SDS011;9837;48.888;8.998;2023-01-06T14:55:45;1.73;;;1.20;;
19402;SDS011;9837;48.888;8.998;2023-01-06T14:58:32;1.87;;;1.20;;
19402;SDS011;9837;48.888;8.998;2023-01-06T15:01:01;3.33;;;1.50;;
19402;SDS011;9837;48.888;8.998;2023-01-06T15:03:28;1.50;;;1.40;;
19402;SDS011;9837;48.888;8.998;2023-01-06T15:08:46;5.33;;;1.40;;
19402;SDS011;9837;48.888;8.998;2023-01-06T15:13:51;3.70;;;1.87;;
19402;SDS011;9837;48.888;8.998;2023-01-06T15:19:00;2.30;;;1.40;;
19402;SDS011;9837;48.888;8.998;2023-01-06T15:21:26;1.50;;;1.40;;
19402;SDS011;9837;48.888;8.998;2023-01-06T15:23:55;2.47;;;1.67;;
19402;SDS011;9837;48.888;8.998;2023-01-06T15:26:25;1.60;;;1.40;;
19402;SDS011;9837;48.888;8.998;2023-01-06T15:31:22;1.27;;;1.17;;
19402;SDS011;9837;48.888;8.998;2023-01-06T15:33:48;1.50;;;1.40;;
19402;SDS011;9837;48.888;8.998;2023-01-06T15:36:16;1.23;;;1.20;;
19402;SDS011;9837;48.888;8.998;2023-01-06T15:38:45;2.90;;;1.20;;
19402;SDS011;9837;48.888;8.998;2023-01-06T15:41:11;1.40;;;1.30;;
19402;SDS011;9837;48.888;8.998;2023-01-06T15:43:56;1.43;;;1.20;;
19402;SDS011;9837;48.888;8.998;2023-01-06T15:46:22;6.10;;;1.33;;
19402;SDS011;9837;48.888;8.998;2023-01-06T15:48:48;2.53;;;1.40;;
19402;SDS011;9837;48.888;8.998;2023-01-06T15:51:16;2.00;;;1.33;;
19402;SDS011;9837;48.888;8.998;2023-01-06T15:53:45;1.50;;;1.40;;
19402;SDS011;9837;48.888;8.998;2023-01-06T15:56:23;1.77;;;1.20;;
19402;SDS011;9837;48.888;8.998;2023-01-06T15:58:52;1.90;;;1.60;;
19402;SDS011;9837;48.888;8.998;2023-01-06T16:01:19;2.20;;;1.73;;
19402;SDS011;9837;48.888;8.998;2023-01-06T16:03:56;1.60;;;1.50;;
19402;SDS011;9837;48.888;8.998;2023-01-06T16:06:28;1.80;;;1.40;;
19402;SDS011;9837;48.888;8.998;2023-01-06T16:14:30;1.50;;;1.23;;
19402;SDS011;9837;48.888;8.998;2023-01-06T16:19:49;0.97;;;0.93;;
19402;SDS011;9837;48.888;8.998;2023-01-06T16:22:25;2.57;;;1.50;;
19402;SDS011;9837;48.888;8.998;2023-01-06T16:24:58;2.57;;;1.60;;
19402;SDS011;9837;48.888;8.998;2023-01-06T16:27:26;2.37;;;1.23;;
19402;SDS011;9837;48.888;8.998;2023-01-06T16:30:05;1.67;;;1.20;;
19402;SDS011;9837;48.888;8.998;2023-01-06T16:32:43;3.10;;;1.30;;
19402;SDS011;9837;48.888;8.998;2023-01-06T16:35:17;3.10;;;1.17;;
19402;SDS011;9837;48.888;8.998;2023-01-06T16:37:48;3.03;;;1.37;;
19402;SDS011;9837;48.888;8.998;2023-01-06T16:40:14;1.17;;;1.13;;
19402;SDS011;9837;48.888;8.998;2023-01-06T16:42:41;1.37;;;1.07;;
19402;SDS011;9837;48.888;8.998;2023-01-06T16:47:45;3.47;;;1.40;;
19402;SDS011;9837;48.888;8.998;2023-01-06T16:50:19;3.20;;;1.33;;
19402;SDS011;9837;48.888;8.998;2023-01-06T16:52:50;1.40;;;1.20;;
19402;SDS011;9837;48.888;8.998;2023-01-06T16:55:22;1.30;;;1.20;;
19402;SDS011;9837;48.888;8.998;2023-01-06T16:57:48;2.17;;;1.67;;
19402;SDS011;9837;48.888;8.998;2023-01-06T17:00:16;1.30;;;1.20;;
19402;SDS011;9837;48.888;8.998;2023-01-06T17:02:45;3.23;;;1.73;;
19402;SDS011;9837;48.888;8.998;2023-01-06T17:05:15;1.70;;;1.60;;
19402;SDS011;9837;48.888;8.998;2023-01-06T17:07:43;2.17;;;1.60;;
19402;SDS011;9837;48.888;8.998;2023-01-06T17:10:12;2.67;;;1.80;;
19402;SDS011;9837;48.888;8.998;2023-01-06T17:12:50;2.23;;;1.70;;
19402;SDS011;9837;48.888;8.998;2023-01-06T17:15:39;1.90;;;1.60;;
19402;SDS011;9837;48.888;8.998;2023-01-06T17:18:11;2.60;;;1.50;;
19402;SDS011;9837;48.888;8.998;2023-01-06T17:20:44;1.60;;;1.50;;
19402;SDS011;9837;48.888;8.998;2023-01-06T17:23:10;2.47;;;1.50;;
19402;SDS011;9837;48.888;8.998;2023-01-06T17:25:36;2.43;;;1.63;;
19402;SDS011;9837;48.888;8.998;2023-01-06T17:28:03;2.90;;;1.70;;
19402;SDS011;9837;48.888;8.998;2023-01-06T17:30:40;2.40;;;1.63;;
19402;SDS011;9837;48.888;8.998;2023-01-06T17:33:07;3.30;;;2.03;;
19402;SDS011;9837;48.888;8.998;2023-01-06T17:35:35;2.00;;;1.60;;
19402;SDS011;9837;48.888;8.998;2023-01-06T17:38:06;2.70;;;1.83;;
19402;SDS011;9837;48.888;8.998;2023-01-06T17:40:38;3.27;;;2.20;;
19402;SDS011;9837;48.888;8.998;2023-01-06T17:45:53;2.77;;;1.47;;
19402;SDS011;9837;48.888;8.998;2023-01-06T17:48:19;1.70;;;1.40;;
19402;SDS011;9837;48.888;8.998;2023-01-06T17:50:52;1.77;;;1.60;;
19402;SDS011;9837;48.888;8.998;2023-01-06T17:56:13;3.80;;;2.53;;
19402;SDS011;9837;48.888;8.998;2023-01-06T17:58:41;2.83;;;2.33;;
19402;SDS011;9837;48.888;8.998;2023-01-06T18:01:08;3.47;;;2.43;;
19402;SDS011;9837;48.888;8.998;2023-01-06T18:03:40;3.97;;;2.80;;
19402;SDS011;9837;48.888;8.998;2023-01-06T18:06:08;5.27;;;2.27;;
19402;SDS011;9837;48.888;8.998;2023-01-06T18:08:43;2.67;;;1.93;;
19402;SDS011;9837;48.888;8.998;2023-01-06T18:13:37;5.10;;;2.70;;
19402;SDS011;9837;48.888;8.998;2023-01-06T18:16:06;7.73;;;3.10;;
19402;SDS011;9837;48.888;8.998;2023-01-06T18:18:41;4.07;;;2.93;;
19402;SDS011;9837;48.888;8.998;2023-01-06T18:23:41;3.37;;;2.30;;
19402;SDS011;9837;48.888;8.998;2023-01-06T18:26:55;2.50;;;1.90;;
19402;SDS011;9837;48.888;8.998;2023-01-06T18:29:15;2.43;;;1.87;;
19402;SDS011;9837;48.888;8.998;2023-01-06T18:31:53;2.20;;;1.93;;
19402;SDS011;9837;48.888;8.998;2023-01-06T18:34:27;2.10;;;1.67;;
19402;SDS011;9837;48.888;8.998;2023-01-06T18:36:56;4.13;;;3.33;;
19402;SDS011;9837;48.888;8.998;2023-01-06T18:39:25;2.10;;;1.90;;
19402;SDS011;9837;48.888;8.998;2023-01-06T18:42:39;1.60;;;1.50;;
19402;SDS011;9837;48.888;8.998;2023-01-06T18:45:00;2.90;;;1.90;;
19402;SDS011;9837;48.888;8.998;2023-01-06T18:47:26;2.30;;;2.10;;
19402;SDS011;9837;48.888;8.998;2023-01-06T18:49:54;4.60;;;2.60;;
19402;SDS011;9837;48.888;8.998;2023-01-06T18:55:05;4.50;;;1.87;;
19402;SDS011;9837;48.888;8.998;2023-01-06T18:57:40;2.60;;;1.90;;
19402;SDS011;9837;48.888;8.998;2023-01-06T19:00:29;1.73;;;1.57;;
19402;SDS011;9837;48.888;8.998;2023-01-06T19:05:32;2.00;;;1.80;;
19402;SDS011;9837;48.888;8.998;2023-01-06T19:07:57;2.20;;;1.60;;
19402;SDS011;9837;48.888;8.998;2023-01-06T19:10:34;2.40;;;1.83;;
19402;SDS011;9837;48.888;8.998;2023-01-06T19:13:00;2.77;;;2.23;;
19402;SDS011;9837;48.888;8.998;2023-01-06T19:15:29;2.80;;;2.43;;
19402;SDS011;9837;48.888;8.998;2023-01-06T19:17:56;2.93;;;2.13;;
19402;SDS011;9837;48.888;8.998;2023-01-06T19:20:22;2.60;;;1.90;;
19402;SDS011;9837;48.888;8.998;2023-01-06T19:22:55;4.40;;;2.13;;
19402;SDS011;9837;48.888;8.998;2023-01-06T19:25:37;5.00;;;2.27;;
19402;SDS011;9837;48.888;8.998;2023-01-06T19:28:14;3.17;;;2.17;;
19402;SDS011;9837;48.888;8.998;2023-01-06T19:30:58;3.07;;;2.30;;
19402;SDS011;9837;48.888;8.998;2023-01-06T19:33:34;5.77;;;2.63;;
19402;SDS011;9837;48.888;8.998;2023-01-06T19:39:36;2.83;;;2.30;;
19402;SDS011;9837;48.888;8.998;2023-01-06T19:44:33;2.33;;;2.00;;
19402;SDS011;9837;48.888;8.998;2023-01-06T19:47:10;4.07;;;2.33;;
19402;SDS011;9837;48.888;8.998;2023-01-06T19:49:42;6.90;;;2.93;;
19402;SDS011;9837;48.888;8.998;2023-01-06T19:52:25;5.17;;;3.63;;
19402;SDS011;9837;48.888;8.998;2023-01-06T19:57:59;8.23;;;4.00;;
19402;SDS011;9837;48.888;8.998;2023-01-06T20:00:30;5.50;;;4.03;;
19402;SDS011;9837;48.888;8.998;2023-01-06T20:02:59;3.20;;;2.50;;
19402;SDS011;9837;48.888;8.998;2023-01-06T20:05:27;2.40;;;2.07;;
19402;SDS011;9837;48.888;8.998;2023-01-06T20:07:55;2.80;;;2.27;;
19402;SDS011;9837;48.888;8.998;2023-01-06T20:10:20;2.73;;;2.17;;
19402;SDS011;9837;48.888;8.998;2023-01-06T20:12:47;3.93;;;2.17;;
19402;SDS011;9837;48.888;8.998;2023-01-06T20:15:13;2.63;;;2.20;;
19402;SDS011;9837;48.888;8.998;2023-01-06T20:17:39;3.30;;;2.40;;
19402;SDS011;9837;48.888;8.998;2023-01-06T20:20:05;4.10;;;2.63;;
19402;SDS011;9837;48.888;8.998;2023-01-06T20:22:31;8.73;;;4.77;;
19402;SDS011;9837;48.888;8.998;2023-01-06T20:24:57;7.30;;;5.07;;
19402;SDS011;9837;48.888;8.998;2023-01-06T20:27:22;9.77;;;5.90;;
19402;SDS011;9837;48.888;8.998;2023-01-06T20:29:48;10.57;;;6.33;;
19402;SDS011;9837;48.888;8.998;2023-01-06T20:32:13;6.50;;;4.53;;
19402;SDS011;9837;48.888;8.998;2023-01-06T20:34:39;4.77;;;3.23;;
19402;SDS011;9837;48.888;8.998;2023-01-06T20:37:05;4.30;;;3.23;;
19402;SDS011;9837;48.888;8.998;2023-01-06T20:39:31;4.17;;;3.00;;
19402;SDS011;9837;48.888;8.998;2023-01-06T20:41:56;7.27;;;4.40;;
19402;SDS011;9837;48.888;8.998;2023-01-06T20:44:24;7.27;;;4.80;;
19402;SDS011;9837;48.888;8.998;2023-01-06T20:46:49;4.23;;;3.30;;
19402;SDS011;9837;48.888;8.998;2023-01-06T20:49:15;3.57;;;2.73;;
19402;SDS011;9837;48.888;8.998;2023-01-06T20:51:44;13.13;;;8.70;;
19402;SDS011;9837;48.888;8.998;2023-01-06T20:54:09;4.20;;;3.43;;
19402;SDS011;9837;48.888;8.998;2023-01-06T20:56:35;2.77;;;2.23;;
19402;SDS011;9837;48.888;8.998;2023-01-06T20:59:00;4.00;;;2.20;;
19402;SDS011;9837;48.888;8.998;2023-01-06T21:01:26;3.93;;;2.47;;
19402;SDS011;9837;48.888;8.998;2023-01-06T21:03:51;5.80;;;2.43;;
19402;SDS011;9837;48.888;8.998;2023-01-06T21:06:17;3.63;;;2.03;;
19402;SDS011;9837;48.888;8.998;2023-01-06T21:08:43;2.23;;;1.80;;
19402;SDS011;9837;48.888;8.998;2023-01-06T21:11:09;2.30;;;1.80;;